createdAt,value
2019-04-28T00:00:53.006Z,12.00
2019-04-28T00:03:22.958Z,12.10
2019-04-28T00:05:52.719Z,12.10
2019-04-28T00:08:22.482Z,12.10
2019-04-28T00:10:53.371Z,12.00
2019-04-28T00:13:23.029Z,12.00
2019-04-28T00:15:54.680Z,11.80
2019-04-28T00:18:24.598Z,11.70
2019-04-28T00:21:04.805Z,11.40
2019-04-28T00:23:38.767Z,11.40
2019-04-28T00:26:21.890Z,11.30
2019-04-28T00:28:51.531Z,11.30
2019-04-28T00:31:21.373Z,11.50
2019-04-28T00:33:52.240Z,11.60
2019-04-28T00:36:21.924Z,11.60
2019-04-28T00:38:51.588Z,11.60
2019-04-28T00:41:21.438Z,11.60
2019-04-28T00:43:51.977Z,11.70
2019-04-28T00:46:23.230Z,11.90
2019-04-28T00:48:52.867Z,11.90
2019-04-28T00:51:22.581Z,12.00
2019-04-28T00:53:52.144Z,12.10
2019-04-28T00:56:21.849Z,12.20
2019-04-28T00:58:53.072Z,12.20
2019-04-28T01:01:24.482Z,12.20
2019-04-28T01:03:54.177Z,12.20
2019-04-28T01:06:23.809Z,12.30
2019-04-28T01:08:53.443Z,12.20
2019-04-28T01:11:23.182Z,12.10
2019-04-28T01:13:52.838Z,12.00
2019-04-28T01:16:26.822Z,12.00
2019-04-28T01:19:03.764Z,12.00
2019-04-28T01:21:37.683Z,12.00
2019-04-28T01:24:07.449Z,12.00
2019-04-28T01:26:37.105Z,11.90
2019-04-28T01:29:06.746Z,11.90
2019-04-28T01:31:39.512Z,12.00
2019-04-28T01:34:22.693Z,12.00
2019-04-28T01:36:52.332Z,12.10
2019-04-28T01:39:22.026Z,12.10
2019-04-28T01:41:51.594Z,12.20
2019-04-28T01:44:21.258Z,12.30
2019-04-28T01:46:51.818Z,12.40
2019-04-28T01:49:21.384Z,12.50
2019-04-28T01:52:00.527Z,12.50
2019-04-28T01:54:30.272Z,12.70
2019-04-28T01:57:01.392Z,12.70
2019-04-28T01:59:32.179Z,12.80
2019-04-28T02:02:01.864Z,13.00
2019-04-28T02:04:32.496Z,13.40
2019-04-28T02:07:02.190Z,13.60
2019-04-28T02:09:31.833Z,13.80
2019-04-28T02:12:01.433Z,14.20
2019-04-28T02:14:31.966Z,14.30
2019-04-28T02:17:01.573Z,14.40
2019-04-28T02:19:32.992Z,14.20
2019-04-28T02:22:13.028Z,14.00
2019-04-28T02:24:42.687Z,13.70
2019-04-28T02:27:12.185Z,13.30
2019-04-28T02:29:41.854Z,13.10
2019-04-28T02:32:13.150Z,13.00
2019-04-28T02:34:43.183Z,13.20
2019-04-28T02:37:12.876Z,13.10
2019-04-28T02:39:42.387Z,13.00
2019-04-28T02:42:11.952Z,12.80
2019-04-28T02:44:41.603Z,13.00
2019-04-28T02:47:11.353Z,12.90
2019-04-28T02:49:51.333Z,12.90
2019-04-28T02:52:30.645Z,13.00
2019-04-28T02:55:03.014Z,13.00
2019-04-28T02:57:32.063Z,13.10
2019-04-28T03:00:01.819Z,13.10
2019-04-28T03:02:33.532Z,13.20
2019-04-28T03:05:03.749Z,13.20
2019-04-28T03:07:33.381Z,13.10
2019-04-28T03:10:03.851Z,13.00
2019-04-28T03:12:33.813Z,13.00
2019-04-28T03:15:04.745Z,12.80
2019-04-28T03:17:34.370Z,12.70
2019-04-28T03:20:05.506Z,12.70
2019-04-28T03:22:35.113Z,12.60
2019-04-28T03:25:10.776Z,12.60
2019-04-28T03:27:52.819Z,12.50
2019-04-28T03:30:43.990Z,12.40
2019-04-28T03:33:18.640Z,12.30
2019-04-28T03:35:44.398Z,12.40
2019-04-28T03:38:14.076Z,12.40
2019-04-28T03:40:44.811Z,12.40
2019-04-28T03:43:14.861Z,12.30
2019-04-28T03:46:04.084Z,12.30
2019-04-28T03:48:33.964Z,12.30
2019-04-28T03:51:03.669Z,12.30
2019-04-28T03:53:33.221Z,12.40
2019-04-28T03:56:02.850Z,12.40
2019-04-28T03:58:32.493Z,12.40
2019-04-28T04:01:03.220Z,12.30
2019-04-28T04:03:33.148Z,12.30
2019-04-28T04:06:02.637Z,12.30
2019-04-28T04:08:32.197Z,12.20
2019-04-28T04:11:15.273Z,12.10
2019-04-28T04:14:04.346Z,12.10
2019-04-28T04:16:47.466Z,12.10
2019-04-28T04:19:20.158Z,12.00
2019-04-28T04:21:52.291Z,12.00
2019-04-28T04:24:20.522Z,12.10
2019-04-28T04:26:50.588Z,12.20
2019-04-28T04:29:21.656Z,12.20
2019-04-28T04:31:51.423Z,12.10
2019-04-28T04:34:21.134Z,12.20
2019-04-28T04:36:50.983Z,12.10
2019-04-28T04:39:20.796Z,12.10
2019-04-28T04:41:50.551Z,12.20
2019-04-28T04:44:21.106Z,12.30
2019-04-28T04:46:51.039Z,12.30
2019-04-28T04:49:21.487Z,12.30
2019-04-28T04:51:51.428Z,12.50
2019-04-28T04:54:20.990Z,12.70
2019-04-28T04:56:50.719Z,12.90
2019-04-28T04:59:20.406Z,12.90
2019-04-28T05:01:57.336Z,12.90
2019-04-28T05:04:31.013Z,13.00
2019-04-28T05:07:00.547Z,13.00
2019-04-28T05:09:31.181Z,13.10
2019-04-28T05:12:00.847Z,13.10
2019-04-28T05:14:30.485Z,13.10
2019-04-28T05:17:00.853Z,13.00
2019-04-28T05:19:31.726Z,13.00
2019-04-28T05:22:01.353Z,13.00
2019-04-28T05:24:32.638Z,12.80
2019-04-28T05:27:02.325Z,12.80
2019-04-28T05:29:31.898Z,12.80
2019-04-28T05:32:03.377Z,12.80
2019-04-28T05:34:32.758Z,12.90
2019-04-28T05:37:02.309Z,13.00
2019-04-28T05:39:31.814Z,13.10
2019-04-28T05:42:01.373Z,13.10
2019-04-28T05:44:32.016Z,13.20
2019-04-28T05:47:01.909Z,13.40
2019-04-28T05:49:33.053Z,13.70
2019-04-28T05:52:04.317Z,13.90
2019-04-28T05:54:40.009Z,14.10
2019-04-28T05:57:11.248Z,14.40
2019-04-28T05:59:54.442Z,14.80
2019-04-28T06:02:25.785Z,15.10
2019-04-28T06:04:55.414Z,15.20
2019-04-28T06:07:30.499Z,15.60
2019-04-28T06:10:00.336Z,16.80
2019-04-28T06:12:30.263Z,18.70
2019-04-28T06:15:01.241Z,20.40
2019-04-28T06:17:30.999Z,20.60
2019-04-28T06:20:00.647Z,19.00
2019-04-28T06:22:30.220Z,18.70
2019-04-28T06:24:59.929Z,18.60
2019-04-28T06:27:32.443Z,17.90
2019-04-28T06:30:00.547Z,17.40
2019-04-28T06:32:30.109Z,17.10
2019-04-28T06:34:59.695Z,16.70
2019-04-28T06:37:29.409Z,16.50
2019-04-28T06:39:58.898Z,16.30
2019-04-28T06:42:28.531Z,16.70
2019-04-28T06:44:58.365Z,16.20
2019-04-28T06:47:27.937Z,15.70
2019-04-28T06:49:58.404Z,15.50
2019-04-28T06:52:28.013Z,15.50
2019-04-28T06:54:57.719Z,15.30
2019-04-28T06:57:27.225Z,15.40
2019-04-28T06:59:56.829Z,15.40
2019-04-28T07:02:26.293Z,15.50
2019-04-28T07:05:02.347Z,16.00
2019-04-28T07:07:27.054Z,16.00
2019-04-28T07:09:56.611Z,15.70
2019-04-28T07:12:26.137Z,15.50
2019-04-28T07:14:55.674Z,15.20
2019-04-28T07:17:25.177Z,14.80
2019-04-28T07:20:02.270Z,14.20
2019-04-28T07:22:33.609Z,13.70
2019-04-28T07:25:03.355Z,13.30
2019-04-28T07:27:33.126Z,13.00
2019-04-28T07:30:03.386Z,13.00
2019-04-28T07:32:33.924Z,13.10
2019-04-28T07:35:03.699Z,13.00
2019-04-28T07:37:33.436Z,13.10
2019-04-28T07:40:06.728Z,13.10
2019-04-28T07:42:36.522Z,13.30
2019-04-28T07:45:07.155Z,13.60
2019-04-28T07:47:36.788Z,13.90
2019-04-28T07:50:07.742Z,14.10
2019-04-28T07:52:57.411Z,14.20
2019-04-28T07:55:27.097Z,14.00
2019-04-28T07:57:56.725Z,13.90
2019-04-28T08:00:27.990Z,13.90
2019-04-28T08:02:57.558Z,14.00
2019-04-28T08:05:27.117Z,13.90
2019-04-28T08:07:56.681Z,13.90
2019-04-28T08:10:26.198Z,13.60
2019-04-28T08:12:55.773Z,13.40
2019-04-28T08:15:25.377Z,13.30
2019-04-28T08:17:54.891Z,13.20
2019-04-28T08:20:24.600Z,13.40
2019-04-28T08:22:54.338Z,13.60
2019-04-28T08:25:24.019Z,14.20
2019-04-28T08:27:53.863Z,14.40
2019-04-28T08:30:23.550Z,14.60
2019-04-28T08:32:54.814Z,14.80
2019-04-28T08:35:24.426Z,15.60
2019-04-28T08:37:53.958Z,16.40
2019-04-28T08:40:24.594Z,16.60
2019-04-28T08:42:54.149Z,16.50
2019-04-28T08:45:23.644Z,16.10
2019-04-28T08:47:53.253Z,15.60
2019-04-28T08:50:22.823Z,15.30
2019-04-28T08:52:52.605Z,15.10
2019-04-28T08:55:22.065Z,14.90
2019-04-28T08:57:51.702Z,14.70
2019-04-28T09:00:22.042Z,14.80
2019-04-28T09:02:51.725Z,14.80
2019-04-28T09:05:21.226Z,14.80
2019-04-28T09:07:50.850Z,15.10
2019-04-28T09:10:20.562Z,15.70
2019-04-28T09:12:50.254Z,16.80
2019-04-28T09:15:19.902Z,17.80
2019-04-28T09:17:49.525Z,19.20
2019-04-28T09:20:19.166Z,19.70
2019-04-28T09:22:48.796Z,19.50
2019-04-28T09:25:18.365Z,18.40
2019-04-28T09:27:47.993Z,18.50
2019-04-28T09:30:19.762Z,18.60
2019-04-28T09:32:49.370Z,18.10
2019-04-28T09:35:18.942Z,18.30
2019-04-28T09:37:48.619Z,18.10
2019-04-28T09:40:18.400Z,18.50
2019-04-28T09:43:01.625Z,18.70
2019-04-28T09:45:32.982Z,18.90
2019-04-28T09:48:02.627Z,19.20
2019-04-28T09:50:32.289Z,19.00
2019-04-28T09:53:01.790Z,18.90
2019-04-28T09:55:31.430Z,19.20
2019-04-28T09:58:00.981Z,19.40
2019-04-28T10:00:31.647Z,19.60
2019-04-28T10:03:01.373Z,19.00
2019-04-28T10:05:30.933Z,18.90
2019-04-28T10:08:00.604Z,19.10
2019-04-28T10:10:30.206Z,19.00
2019-04-28T10:12:59.924Z,18.90
2019-04-28T10:15:29.500Z,19.20
2019-04-28T10:17:59.309Z,19.40
2019-04-28T10:20:28.944Z,19.20
2019-04-28T10:22:58.578Z,19.40
2019-04-28T10:25:28.146Z,19.50
2019-04-28T10:27:57.772Z,20.30
2019-04-28T10:30:27.413Z,20.00
2019-04-28T10:32:56.977Z,19.80
2019-04-28T10:35:26.476Z,19.90
2019-04-28T10:37:56.173Z,20.00
2019-04-28T10:40:41.748Z,19.90
2019-04-28T10:43:11.499Z,19.80
2019-04-28T10:45:42.681Z,20.00
2019-04-28T10:48:12.321Z,20.50
2019-04-28T10:50:41.961Z,19.70
2019-04-28T10:53:11.509Z,19.20
2019-04-28T10:55:41.075Z,19.10
2019-04-28T10:58:10.635Z,19.20
2019-04-28T11:00:42.102Z,19.20
2019-04-28T11:03:11.729Z,19.20
2019-04-28T11:05:43.755Z,19.20
2019-04-28T11:08:17.394Z,18.60
2019-04-28T11:10:47.294Z,18.70
2019-04-28T11:13:17.107Z,19.20
2019-04-28T11:15:46.814Z,19.60
2019-04-28T11:18:16.935Z,19.60
2019-04-28T11:20:46.542Z,19.60
2019-04-28T11:23:16.112Z,20.00
2019-04-28T11:25:45.865Z,19.90
2019-04-28T11:28:15.422Z,19.90
2019-04-28T11:30:46.097Z,19.70
2019-04-28T11:33:23.061Z,19.70
2019-04-28T11:35:53.814Z,19.80
2019-04-28T11:38:23.525Z,20.30
2019-04-28T11:40:53.162Z,20.70
2019-04-28T11:43:22.745Z,20.70
2019-04-28T11:45:52.457Z,20.70
2019-04-28T11:48:22.014Z,20.20
2019-04-28T11:50:51.700Z,20.00
2019-04-28T11:53:21.253Z,20.30
2019-04-28T11:55:50.919Z,20.70
2019-04-28T11:58:20.490Z,20.70
2019-04-28T12:00:50.203Z,20.20
2019-04-28T12:03:19.810Z,20.70
2019-04-28T12:05:49.526Z,20.60
2019-04-28T12:08:19.021Z,20.30
2019-04-28T12:11:02.150Z,19.50
2019-04-28T12:13:36.079Z,19.90
2019-04-28T12:16:25.738Z,20.30
2019-04-28T12:19:03.774Z,20.20
2019-04-28T12:21:33.421Z,20.70
2019-04-28T12:24:03.058Z,20.40
2019-04-28T12:26:32.702Z,19.50
2019-04-28T12:29:02.311Z,19.60
2019-04-28T12:31:31.918Z,20.00
2019-04-28T12:34:01.433Z,19.80
2019-04-28T12:36:31.002Z,19.10
2019-04-28T12:39:00.633Z,19.10
2019-04-28T12:41:31.989Z,18.90
2019-04-28T12:44:01.572Z,18.90
2019-04-28T12:46:32.569Z,19.30
2019-04-28T12:49:06.752Z,19.30
2019-04-28T12:51:36.230Z,19.10
2019-04-28T12:54:11.760Z,18.90
2019-04-28T12:56:41.388Z,19.10
2019-04-28T12:59:15.178Z,19.90
2019-04-28T13:01:58.606Z,20.10
2019-04-28T13:04:33.047Z,19.80
2019-04-28T13:07:04.087Z,19.60
2019-04-28T13:09:33.825Z,19.20
2019-04-28T13:12:03.745Z,19.20
2019-04-28T13:14:33.261Z,19.60
2019-04-28T13:17:02.972Z,20.00
2019-04-28T13:19:32.667Z,19.80
2019-04-28T13:22:04.041Z,20.10
2019-04-28T13:24:33.430Z,20.60
2019-04-28T13:27:03.014Z,19.80
2019-04-28T13:29:32.502Z,19.20
2019-04-28T13:32:02.696Z,18.40
2019-04-28T13:34:33.895Z,18.10
2019-04-28T13:37:03.573Z,18.10
2019-04-28T13:39:34.820Z,18.80
2019-04-28T13:42:04.840Z,19.40
2019-04-28T13:44:54.241Z,19.60
2019-04-28T13:47:23.815Z,19.50
2019-04-28T13:50:10.251Z,18.90
2019-04-28T13:52:39.793Z,18.70
2019-04-28T13:55:27.255Z,18.40
2019-04-28T13:57:58.580Z,18.40
2019-04-28T14:00:41.898Z,18.40
2019-04-28T14:03:29.657Z,18.20
2019-04-28T14:06:00.981Z,18.70
2019-04-28T14:08:30.726Z,19.20
2019-04-28T14:11:00.330Z,18.80
2019-04-28T14:13:30.086Z,18.80
2019-04-28T14:16:00.163Z,19.20
2019-04-28T14:18:29.777Z,19.50
2019-04-28T14:21:00.010Z,18.80
2019-04-28T14:23:29.578Z,18.00
2019-04-28T14:25:59.070Z,17.80
2019-04-28T14:28:28.726Z,17.40
2019-04-28T14:30:58.358Z,17.00
2019-04-28T14:33:28.131Z,16.90
2019-04-28T14:35:57.735Z,17.00
2019-04-28T14:38:28.680Z,17.60
2019-04-28T14:40:58.381Z,17.90
2019-04-28T14:43:28.049Z,18.00
2019-04-28T14:45:57.574Z,17.60
2019-04-28T14:48:27.329Z,17.50
2019-04-28T14:50:56.893Z,17.50
2019-04-28T14:53:29.403Z,17.60
2019-04-28T14:55:59.142Z,17.60
2019-04-28T14:58:28.614Z,17.20
2019-04-28T15:01:14.742Z,16.90
2019-04-28T15:03:53.218Z,16.80
2019-04-28T15:06:24.384Z,16.80
2019-04-28T15:08:55.615Z,16.90
2019-04-28T15:11:26.861Z,16.90
2019-04-28T15:13:56.484Z,17.00
2019-04-28T15:16:26.111Z,17.00
2019-04-28T15:18:57.193Z,17.10
2019-04-28T15:21:26.870Z,17.10
2019-04-28T15:23:57.085Z,17.10
2019-04-28T15:26:26.821Z,17.20
2019-04-28T15:28:56.451Z,17.20
2019-04-28T15:31:26.019Z,17.10
2019-04-28T15:33:57.095Z,16.90
2019-04-28T15:36:26.660Z,16.60
2019-04-28T15:38:56.141Z,16.20
2019-04-28T15:41:25.781Z,15.90
2019-04-28T15:43:55.421Z,16.10
2019-04-28T15:46:25.162Z,16.30
2019-04-28T15:48:54.700Z,16.60
2019-04-28T15:51:24.233Z,16.80
2019-04-28T15:53:53.915Z,16.70
2019-04-28T15:56:25.130Z,16.60
2019-04-28T15:58:56.698Z,16.50
2019-04-28T16:01:25.886Z,16.30
2019-04-28T16:03:55.514Z,16.10
2019-04-28T16:06:25.235Z,15.80
2019-04-28T16:08:56.273Z,15.50
2019-04-28T16:11:28.709Z,15.40
2019-04-28T16:13:57.101Z,15.40
2019-04-28T16:16:26.740Z,15.50
2019-04-28T16:18:56.249Z,15.50
2019-04-28T16:21:26.430Z,15.60
2019-04-28T16:23:56.144Z,15.40
2019-04-28T16:26:25.790Z,15.30
2019-04-28T16:28:55.359Z,15.10
2019-04-28T16:31:24.929Z,15.00
2019-04-28T16:33:54.553Z,14.90
2019-04-28T16:36:25.674Z,14.80
2019-04-28T16:38:57.026Z,14.70
2019-04-28T16:41:29.815Z,14.60
2019-04-28T16:44:00.279Z,14.70
2019-04-28T16:46:29.885Z,14.80
2019-04-28T16:48:59.685Z,14.70
2019-04-28T16:51:29.398Z,14.50
2019-04-28T16:53:58.890Z,14.40
2019-04-28T16:56:32.677Z,14.40
2019-04-28T16:59:20.030Z,14.40
2019-04-28T17:01:53.826Z,14.40
2019-04-28T17:04:23.521Z,14.30
2019-04-28T17:06:55.826Z,14.30
2019-04-28T17:09:25.642Z,14.30
2019-04-28T17:11:55.349Z,14.10
2019-04-28T17:14:25.095Z,14.10
2019-04-28T17:16:54.809Z,14.00
2019-04-28T17:19:24.519Z,13.90
2019-04-28T17:21:54.295Z,13.80
2019-04-28T17:24:25.001Z,13.80
2019-04-28T17:26:55.766Z,13.80
2019-04-28T17:29:25.378Z,13.60
2019-04-28T17:31:55.286Z,13.50
2019-04-28T17:34:24.998Z,13.40
2019-04-28T17:36:56.379Z,13.40
2019-04-28T17:39:27.654Z,13.40
2019-04-28T17:41:57.284Z,13.40
2019-04-28T17:44:26.805Z,13.30
2019-04-28T17:46:56.751Z,13.30
2019-04-28T17:49:28.028Z,13.30
2019-04-28T17:51:57.677Z,13.20
2019-04-28T17:54:28.343Z,13.00
2019-04-28T17:56:58.061Z,13.00
2019-04-28T17:59:27.592Z,12.90
2019-04-28T18:02:15.014Z,12.80
2019-04-28T18:05:01.761Z,12.80
2019-04-28T18:07:33.034Z,12.80
2019-04-28T18:10:07.649Z,12.80
2019-04-28T18:12:38.506Z,12.80
2019-04-28T18:15:27.244Z,12.80
2019-04-28T18:18:01.138Z,12.80
2019-04-28T18:20:32.473Z,12.80
2019-04-28T18:23:03.533Z,12.60
2019-04-28T18:25:33.168Z,12.40
2019-04-28T18:28:02.850Z,12.30
2019-04-28T18:30:35.741Z,12.30
2019-04-28T18:33:07.215Z,12.20
2019-04-28T18:35:50.332Z,12.10
2019-04-28T18:38:35.365Z,12.10
2019-04-28T18:41:12.465Z,12.10
2019-04-28T18:43:49.579Z,11.90
2019-04-28T18:46:20.749Z,11.90
2019-04-28T18:48:50.465Z,11.80
2019-04-28T18:51:20.166Z,11.90
2019-04-28T18:53:52.469Z,11.90
2019-04-28T18:56:22.101Z,11.90
2019-04-28T18:58:57.185Z,11.90
2019-04-28T19:01:35.322Z,11.90
2019-04-28T19:04:05.122Z,11.90
2019-04-28T19:06:35.715Z,12.00
2019-04-28T19:09:21.451Z,11.90
2019-04-28T19:11:55.714Z,11.90
2019-04-28T19:14:36.039Z,12.00
2019-04-28T19:17:15.786Z,11.90
2019-04-28T19:19:48.238Z,11.80
2019-04-28T19:22:17.849Z,11.80
2019-04-28T19:24:47.586Z,11.80
2019-04-28T19:27:17.219Z,11.80
2019-04-28T19:29:46.781Z,11.70
2019-04-28T19:32:18.046Z,11.70
2019-04-28T19:34:47.752Z,11.70
2019-04-28T19:37:17.330Z,11.70
2019-04-28T19:39:47.073Z,11.70
2019-04-28T19:42:16.854Z,11.70
2019-04-28T19:44:47.957Z,11.70
2019-04-28T19:47:19.030Z,11.70
2019-04-28T19:49:50.629Z,11.80
2019-04-28T19:52:21.930Z,11.70
2019-04-28T19:55:04.892Z,11.70
2019-04-28T19:57:43.406Z,11.70
2019-04-28T20:00:32.170Z,11.70
2019-04-28T20:03:01.662Z,11.70
2019-04-28T20:05:31.488Z,11.70
2019-04-28T20:08:01.841Z,11.70
2019-04-28T20:10:33.193Z,12.00
2019-04-28T20:13:02.823Z,12.40
2019-04-28T20:15:33.569Z,12.50
2019-04-28T20:18:03.329Z,12.50
2019-04-28T20:20:34.899Z,12.50
2019-04-28T20:23:04.785Z,12.40
2019-04-28T20:25:35.500Z,12.30
2019-04-28T20:28:05.196Z,12.20
2019-04-28T20:30:34.826Z,12.20
2019-04-28T20:33:07.252Z,12.20
2019-04-28T20:35:40.394Z,12.10
2019-04-28T20:38:11.669Z,12.10
2019-04-28T20:41:02.072Z,12.00
2019-04-28T20:43:32.062Z,12.00
2019-04-28T20:46:01.800Z,12.00
2019-04-28T20:48:32.473Z,12.00
2019-04-28T20:51:02.655Z,12.00
2019-04-28T20:53:33.433Z,12.00
2019-04-28T20:56:03.140Z,12.00
2019-04-28T20:58:32.882Z,12.00
2019-04-28T21:01:02.690Z,12.00
2019-04-28T21:03:32.978Z,11.90
2019-04-28T21:06:02.525Z,11.90
2019-04-28T21:08:32.160Z,11.80
2019-04-28T21:11:01.841Z,11.70
2019-04-28T21:13:33.017Z,11.60
2019-04-28T21:16:02.642Z,11.50
2019-04-28T21:18:32.270Z,11.50
2019-04-28T21:21:02.046Z,11.50
2019-04-28T21:23:31.577Z,11.40
2019-04-28T21:26:01.123Z,11.40
2019-04-28T21:28:30.738Z,11.40
2019-04-28T21:31:00.368Z,11.40
2019-04-28T21:33:30.090Z,11.30
2019-04-28T21:35:59.777Z,11.20
2019-04-28T21:38:29.470Z,11.10
2019-04-28T21:40:59.078Z,10.90
2019-04-28T21:43:30.222Z,10.80
2019-04-28T21:46:13.237Z,10.80
2019-04-28T21:48:50.382Z,10.80
2019-04-28T21:51:20.037Z,10.80
2019-04-28T21:53:49.646Z,10.60
2019-04-28T21:56:19.278Z,10.60
2019-04-28T21:58:48.772Z,10.40
2019-04-28T22:01:21.654Z,10.30
2019-04-28T22:03:51.388Z,10.20
2019-04-28T22:06:21.310Z,10.20
2019-04-28T22:08:51.081Z,10.20
2019-04-28T22:11:20.724Z,10.30
2019-04-28T22:13:50.316Z,10.10
2019-04-28T22:16:19.993Z,10.00
2019-04-28T22:18:49.582Z,9.90
2019-04-28T22:21:19.174Z,9.90
2019-04-28T22:23:59.383Z,10.00
2019-04-28T22:26:30.662Z,10.00
2019-04-28T22:29:00.151Z,10.00
2019-04-28T22:31:29.842Z,10.00
2019-04-28T22:33:59.335Z,9.80
2019-04-28T22:36:30.127Z,9.80
2019-04-28T22:38:59.690Z,9.80
2019-04-28T22:41:29.283Z,9.80
2019-04-28T22:43:58.940Z,9.70
2019-04-28T22:46:28.390Z,9.70
2019-04-28T22:48:59.658Z,9.70
2019-04-28T22:51:29.302Z,9.60
2019-04-28T22:54:00.545Z,9.70
2019-04-28T22:56:31.865Z,9.70
2019-04-28T22:59:05.673Z,9.70
2019-04-28T23:01:42.797Z,9.70
2019-04-28T23:04:14.097Z,9.70
2019-04-28T23:06:43.802Z,9.70
2019-04-28T23:09:14.921Z,9.60
2019-04-28T23:11:44.545Z,9.70
2019-04-28T23:14:14.204Z,9.70
2019-04-28T23:16:43.811Z,9.60
2019-04-28T23:19:15.126Z,9.60
2019-04-28T23:22:01.437Z,9.60
2019-04-28T23:24:31.117Z,9.70
2019-04-28T23:27:00.753Z,9.70
2019-04-28T23:29:30.674Z,9.60
2019-04-28T23:32:00.383Z,9.40
2019-04-28T23:34:29.922Z,9.40
2019-04-28T23:36:59.481Z,9.30
2019-04-28T23:39:29.106Z,9.30
2019-04-28T23:42:00.233Z,9.30
2019-04-28T23:44:29.842Z,9.30
2019-04-28T23:47:00.568Z,9.30
2019-04-28T23:49:30.517Z,9.20
2019-04-28T23:52:04.268Z,9.20
2019-04-28T23:54:35.475Z,9.20
2019-04-28T23:57:07.315Z,9.20
2019-04-28T23:59:37.148Z,9.20
